Terminal Aerodrome Forecast
Issued by NWS

Home | Current Version | Previous Version | Text Only | Print | Product List | Glossary On
Versions: 1 2 3 4 5 6 7 8 9 10 11 12 13 14 15 16 17 18 19 20 21 22 23 24 25 26 27 28 29 30 31 32 33 34 35
000
FTUS43 KDMX 292341
TAFOTM
TAF
KOTM 292341Z 3000/3024 17005KT P6SM VCSH SCT012 BKN080
     FM300300 VRB04KT 6SM BR VCTS SCT003 BKN050CB OVC100
     FM300600 23005KT 5SM BR VCSH SCT003 BKN050
     FM301000 24006KT 1SM BR SCT003 BKN010
     FM301500 29008KT 5SM BR SCT010
     FM301630 29008KT P6SM SCT030=

USA.gov is the U.S. government's official web portal to all federal, state and local government web resources and services.